Hovedside
METAR-TAF:

METAR-TAF

Lufthavner :

Funafuti internasjonale lufthavn

Funafuti, Tuvalu

breddegrad: 08-31S, lengdegrad: 179-13E, høyde over havet: 1 m

Gjeldene værobservasjon

Denne rapporten ble laget for 25 minutter siden, klokken 09:00 UTC
Vind 7 kt fra Øst
Temperatur 28°C
Luftfuktighet 84%
Trykk 1012 hPa
Sikt 10 km eller mer
Spredte skyer i en høyde av 1900 ft

METAR: NGFU 190900Z 09007KT 9999 SCT019 28/25 Q1012

Tid: 21:25 (09:25 UTC)

Varsel

Denne rapporten ble laget for 4 timer og 1 minutter siden, klokken 05:24 UTC
Varsel gyldig fra 19. klokken 06 UTC til 20. klokken 06 UTC
Vind 5 kt fra Sørøst
Sikt 10 km eller mer
Spredte skyer i en høyde av 1500 ft
Brutte skyer i en høyde av 10000 ft
Midlertidig
fra 19. klokken 06 UTC til 19. klokken 18 UTC
Sikt: 8000 m
Brutte skyer i en høyde av 1500 ft
regnbyger

TAF: NGFU 190524Z 1906/2006 13005KT 9999 SCT015 BKN100 TEMPO 1906/1918 8000 SHRA BKN015

Værobservasjoner og værvarsel for over 4000 flyplasser (METAR- og TAF-rapporter).

Tilgjengelige stasjoner er representert av de røde og gule prikkene på kartet.

Hold musepekeren over prikken for å se navnet på stasjonen.

Klikk så for å se værobservasjoner og -varsler.

For å forandre kartet kan du klikke på den grønne knappen med svart kryss for å zoome inn, på den grønne knappen med strek for å zoome ut, eller på de grønne pilene for å se tilstøtende kart.


METAR-TAF: